sensor_id;sensor_type;location;lat;lon;timestamp;P1;durP1;ratioP1;P2;durP2;ratioP2
48621;SDS011;34421;48.944;9.460;2022-07-30T00:00:14;3.30;;;1.40;;
48621;SDS011;34421;48.944;9.460;2022-07-30T00:02:40;2.40;;;1.45;;
48621;SDS011;34421;48.944;9.460;2022-07-30T00:05:06;2.92;;;1.50;;
48621;SDS011;34421;48.944;9.460;2022-07-30T00:07:31;2.47;;;1.25;;
48621;SDS011;34421;48.944;9.460;2022-07-30T00:09:57;2.50;;;1.65;;
48621;SDS011;34421;48.944;9.460;2022-07-30T00:12:22;2.65;;;1.70;;
48621;SDS011;34421;48.944;9.460;2022-07-30T00:14:48;2.60;;;1.45;;
48621;SDS011;34421;48.944;9.460;2022-07-30T00:17:13;2.20;;;1.50;;
48621;SDS011;34421;48.944;9.460;2022-07-30T00:19:38;3.05;;;1.40;;
48621;SDS011;34421;48.944;9.460;2022-07-30T00:22:04;3.15;;;1.80;;
48621;SDS011;34421;48.944;9.460;2022-07-30T00:24:29;2.47;;;1.70;;
48621;SDS011;34421;48.944;9.460;2022-07-30T00:26:54;2.35;;;1.30;;
48621;SDS011;34421;48.944;9.460;2022-07-30T00:29:20;2.80;;;1.73;;
48621;SDS011;34421;48.944;9.460;2022-07-30T00:31:45;2.63;;;1.60;;
48621;SDS011;34421;48.944;9.460;2022-07-30T00:34:11;2.22;;;1.52;;
48621;SDS011;34421;48.944;9.460;2022-07-30T00:36:39;2.10;;;1.20;;
48621;SDS011;34421;48.944;9.460;2022-07-30T00:39:05;3.10;;;1.65;;
48621;SDS011;34421;48.944;9.460;2022-07-30T00:41:30;3.13;;;1.55;;
48621;SDS011;34421;48.944;9.460;2022-07-30T00:43:55;3.15;;;1.67;;
48621;SDS011;34421;48.944;9.460;2022-07-30T00:46:21;2.75;;;1.48;;
48621;SDS011;34421;48.944;9.460;2022-07-30T00:48:46;2.95;;;1.55;;
48621;SDS011;34421;48.944;9.460;2022-07-30T00:51:11;2.03;;;1.50;;
48621;SDS011;34421;48.944;9.460;2022-07-30T00:53:37;2.60;;;1.70;;
48621;SDS011;34421;48.944;9.460;2022-07-30T00:56:03;2.88;;;1.60;;
48621;SDS011;34421;48.944;9.460;2022-07-30T00:58:29;2.83;;;1.63;;
48621;SDS011;34421;48.944;9.460;2022-07-30T01:00:54;3.38;;;1.77;;
48621;SDS011;34421;48.944;9.460;2022-07-30T01:03:20;2.78;;;1.73;;
48621;SDS011;34421;48.944;9.460;2022-07-30T01:05:45;3.25;;;1.77;;
48621;SDS011;34421;48.944;9.460;2022-07-30T01:08:10;3.13;;;1.52;;
48621;SDS011;34421;48.944;9.460;2022-07-30T01:10:36;2.15;;;1.55;;
48621;SDS011;34421;48.944;9.460;2022-07-30T01:13:02;2.83;;;1.58;;
48621;SDS011;34421;48.944;9.460;2022-07-30T01:15:28;2.70;;;1.63;;
48621;SDS011;34421;48.944;9.460;2022-07-30T01:17:54;2.30;;;1.48;;
48621;SDS011;34421;48.944;9.460;2022-07-30T01:20:23;2.72;;;1.52;;
48621;SDS011;34421;48.944;9.460;2022-07-30T01:23:26;2.75;;;1.73;;
48621;SDS011;34421;48.944;9.460;2022-07-30T01:25:57;3.08;;;1.90;;
48621;SDS011;34421;48.944;9.460;2022-07-30T01:28:30;2.25;;;1.33;;
48621;SDS011;34421;48.944;9.460;2022-07-30T01:30:58;2.35;;;1.40;;
48621;SDS011;34421;48.944;9.460;2022-07-30T01:33:25;2.90;;;1.63;;
48621;SDS011;34421;48.944;9.460;2022-07-30T01:35:52;2.72;;;1.80;;
48621;SDS011;34421;48.944;9.460;2022-07-30T01:38:23;2.45;;;1.67;;
48621;SDS011;34421;48.944;9.460;2022-07-30T01:40:50;2.15;;;1.40;;
48621;SDS011;34421;48.944;9.460;2022-07-30T01:43:17;2.20;;;1.35;;
48621;SDS011;34421;48.944;9.460;2022-07-30T01:45:45;2.47;;;1.55;;
48621;SDS011;34421;48.944;9.460;2022-07-30T01:48:12;2.90;;;1.45;;
48621;SDS011;34421;48.944;9.460;2022-07-30T01:50:41;2.72;;;1.40;;
48621;SDS011;34421;48.944;9.460;2022-07-30T01:53:12;2.40;;;1.50;;
48621;SDS011;34421;48.944;9.460;2022-07-30T01:55:40;2.63;;;1.50;;
48621;SDS011;34421;48.944;9.460;2022-07-30T01:58:07;2.65;;;1.67;;
48621;SDS011;34421;48.944;9.460;2022-07-30T02:00:38;2.63;;;1.65;;
48621;SDS011;34421;48.944;9.460;2022-07-30T02:03:06;2.42;;;1.50;;
48621;SDS011;34421;48.944;9.460;2022-07-30T02:05:34;2.72;;;1.40;;
48621;SDS011;34421;48.944;9.460;2022-07-30T02:08:02;2.10;;;1.50;;
48621;SDS011;34421;48.944;9.460;2022-07-30T02:10:34;2.67;;;1.50;;
48621;SDS011;34421;48.944;9.460;2022-07-30T02:13:05;2.28;;;1.73;;
48621;SDS011;34421;48.944;9.460;2022-07-30T02:21:21;2.03;;;1.30;;
48621;SDS011;34421;48.944;9.460;2022-07-30T02:23:48;2.65;;;1.55;;
48621;SDS011;34421;48.944;9.460;2022-07-30T02:26:16;2.25;;;1.45;;
48621;SDS011;34421;48.944;9.460;2022-07-30T02:28:47;2.33;;;1.65;;
48621;SDS011;34421;48.944;9.460;2022-07-30T02:31:18;2.40;;;1.23;;
48621;SDS011;34421;48.944;9.460;2022-07-30T02:33:47;2.70;;;1.77;;
48621;SDS011;34421;48.944;9.460;2022-07-30T02:36:14;3.05;;;1.73;;
48621;SDS011;34421;48.944;9.460;2022-07-30T02:38:42;2.20;;;1.45;;
48621;SDS011;34421;48.944;9.460;2022-07-30T02:41:09;2.08;;;1.60;;
48621;SDS011;34421;48.944;9.460;2022-07-30T02:43:36;3.03;;;1.58;;
48621;SDS011;34421;48.944;9.460;2022-07-30T02:46:04;2.85;;;1.52;;
48621;SDS011;34421;48.944;9.460;2022-07-30T02:48:31;2.42;;;1.30;;
48621;SDS011;34421;48.944;9.460;2022-07-30T02:50:59;2.40;;;1.35;;
48621;SDS011;34421;48.944;9.460;2022-07-30T02:53:26;2.40;;;1.27;;
48621;SDS011;34421;48.944;9.460;2022-07-30T02:55:54;3.28;;;1.40;;
48621;SDS011;34421;48.944;9.460;2022-07-30T02:58:22;2.88;;;1.48;;
48621;SDS011;34421;48.944;9.460;2022-07-30T03:00:53;2.45;;;1.35;;
48621;SDS011;34421;48.944;9.460;2022-07-30T03:03:18;2.17;;;1.50;;
48621;SDS011;34421;48.944;9.460;2022-07-30T03:05:45;2.60;;;1.35;;
48621;SDS011;34421;48.944;9.460;2022-07-30T03:08:15;2.83;;;1.50;;
48621;SDS011;34421;48.944;9.460;2022-07-30T03:10:41;3.50;;;1.50;;
48621;SDS011;34421;48.944;9.460;2022-07-30T03:13:08;1.58;;;1.10;;
48621;SDS011;34421;48.944;9.460;2022-07-30T03:15:36;2.80;;;1.70;;
48621;SDS011;34421;48.944;9.460;2022-07-30T03:18:08;2.50;;;1.48;;
48621;SDS011;34421;48.944;9.460;2022-07-30T03:20:37;2.65;;;1.60;;
48621;SDS011;34421;48.944;9.460;2022-07-30T03:23:03;2.67;;;1.63;;
48621;SDS011;34421;48.944;9.460;2022-07-30T03:25:30;2.67;;;1.70;;
48621;SDS011;34421;48.944;9.460;2022-07-30T03:27:57;3.95;;;1.65;;
48621;SDS011;34421;48.944;9.460;2022-07-30T03:30:24;2.38;;;1.27;;
48621;SDS011;34421;48.944;9.460;2022-07-30T03:32:51;2.45;;;1.40;;
48621;SDS011;34421;48.944;9.460;2022-07-30T03:35:18;2.85;;;1.85;;
48621;SDS011;34421;48.944;9.460;2022-07-30T03:37:46;3.00;;;2.05;;
48621;SDS011;34421;48.944;9.460;2022-07-30T03:40:13;1.88;;;1.13;;
48621;SDS011;34421;48.944;9.460;2022-07-30T03:42:39;2.10;;;1.30;;
48621;SDS011;34421;48.944;9.460;2022-07-30T03:45:05;2.65;;;1.73;;
48621;SDS011;34421;48.944;9.460;2022-07-30T03:47:32;3.33;;;2.10;;
48621;SDS011;34421;48.944;9.460;2022-07-30T03:50:00;3.40;;;1.65;;
48621;SDS011;34421;48.944;9.460;2022-07-30T03:52:26;2.85;;;1.50;;
48621;SDS011;34421;48.944;9.460;2022-07-30T03:54:52;3.63;;;2.08;;
48621;SDS011;34421;48.944;9.460;2022-07-30T03:57:18;3.08;;;1.73;;
48621;SDS011;34421;48.944;9.460;2022-07-30T03:59:43;4.88;;;1.85;;
48621;SDS011;34421;48.944;9.460;2022-07-30T04:02:10;3.35;;;1.92;;
48621;SDS011;34421;48.944;9.460;2022-07-30T04:04:40;2.88;;;1.88;;
48621;SDS011;34421;48.944;9.460;2022-07-30T04:07:06;4.03;;;2.42;;
48621;SDS011;34421;48.944;9.460;2022-07-30T04:09:32;2.58;;;1.63;;
48621;SDS011;34421;48.944;9.460;2022-07-30T04:11:57;3.17;;;1.98;;
48621;SDS011;34421;48.944;9.460;2022-07-30T04:14:23;4.32;;;1.90;;
48621;SDS011;34421;48.944;9.460;2022-07-30T04:16:49;3.00;;;1.88;;
48621;SDS011;34421;48.944;9.460;2022-07-30T04:19:23;2.47;;;1.55;;
48621;SDS011;34421;48.944;9.460;2022-07-30T04:21:52;2.88;;;1.88;;
48621;SDS011;34421;48.944;9.460;2022-07-30T04:24:19;2.97;;;1.65;;
48621;SDS011;34421;48.944;9.460;2022-07-30T04:26:46;2.45;;;1.50;;
48621;SDS011;34421;48.944;9.460;2022-07-30T04:29:12;2.90;;;1.75;;
48621;SDS011;34421;48.944;9.460;2022-07-30T04:31:37;2.85;;;1.88;;
48621;SDS011;34421;48.944;9.460;2022-07-30T04:34:04;2.90;;;1.65;;
48621;SDS011;34421;48.944;9.460;2022-07-30T04:36:31;3.33;;;1.77;;
48621;SDS011;34421;48.944;9.460;2022-07-30T04:38:57;3.40;;;2.00;;
48621;SDS011;34421;48.944;9.460;2022-07-30T04:41:24;3.42;;;2.10;;
48621;SDS011;34421;48.944;9.460;2022-07-30T04:43:50;3.40;;;2.15;;
48621;SDS011;34421;48.944;9.460;2022-07-30T04:46:15;2.80;;;1.95;;
48621;SDS011;34421;48.944;9.460;2022-07-30T04:48:41;2.85;;;1.80;;
48621;SDS011;34421;48.944;9.460;2022-07-30T04:51:08;3.92;;;2.17;;
48621;SDS011;34421;48.944;9.460;2022-07-30T04:53:38;3.40;;;2.13;;
48621;SDS011;34421;48.944;9.460;2022-07-30T04:56:05;4.47;;;2.20;;
48621;SDS011;34421;48.944;9.460;2022-07-30T04:58:32;2.85;;;1.83;;
48621;SDS011;34421;48.944;9.460;2022-07-30T05:00:59;2.97;;;1.80;;
48621;SDS011;34421;48.944;9.460;2022-07-30T05:03:26;2.50;;;1.55;;
48621;SDS011;34421;48.944;9.460;2022-07-30T05:05:54;3.25;;;1.50;;
48621;SDS011;34421;48.944;9.460;2022-07-30T05:08:21;3.38;;;2.08;;
48621;SDS011;34421;48.944;9.460;2022-07-30T05:10:50;2.75;;;1.90;;
48621;SDS011;34421;48.944;9.460;2022-07-30T05:13:15;2.80;;;1.60;;
48621;SDS011;34421;48.944;9.460;2022-07-30T05:15:41;4.15;;;2.15;;
48621;SDS011;34421;48.944;9.460;2022-07-30T05:18:08;2.80;;;1.67;;
48621;SDS011;34421;48.944;9.460;2022-07-30T05:20:34;2.60;;;1.10;;
48621;SDS011;34421;48.944;9.460;2022-07-30T05:23:00;3.13;;;2.03;;
48621;SDS011;34421;48.944;9.460;2022-07-30T05:25:25;2.17;;;1.50;;
48621;SDS011;34421;48.944;9.460;2022-07-30T05:27:51;2.53;;;1.55;;
48621;SDS011;34421;48.944;9.460;2022-07-30T05:30:16;2.38;;;1.50;;
48621;SDS011;34421;48.944;9.460;2022-07-30T05:32:41;2.88;;;1.95;;
48621;SDS011;34421;48.944;9.460;2022-07-30T05:35:08;3.17;;;1.70;;
48621;SDS011;34421;48.944;9.460;2022-07-30T05:37:33;2.35;;;1.27;;
48621;SDS011;34421;48.944;9.460;2022-07-30T05:39:59;3.33;;;1.90;;
48621;SDS011;34421;48.944;9.460;2022-07-30T05:42:24;2.67;;;1.80;;
48621;SDS011;34421;48.944;9.460;2022-07-30T05:44:49;2.28;;;1.58;;
48621;SDS011;34421;48.944;9.460;2022-07-30T05:47:15;3.15;;;1.65;;
48621;SDS011;34421;48.944;9.460;2022-07-30T05:49:42;3.30;;;1.85;;
48621;SDS011;34421;48.944;9.460;2022-07-30T05:52:07;3.78;;;1.80;;
48621;SDS011;34421;48.944;9.460;2022-07-30T05:54:32;2.75;;;1.85;;
48621;SDS011;34421;48.944;9.460;2022-07-30T05:56:58;3.67;;;1.95;;
48621;SDS011;34421;48.944;9.460;2022-07-30T05:59:23;3.70;;;2.08;;
48621;SDS011;34421;48.944;9.460;2022-07-30T06:01:49;2.67;;;1.83;;
48621;SDS011;34421;48.944;9.460;2022-07-30T06:04:14;3.35;;;2.08;;
48621;SDS011;34421;48.944;9.460;2022-07-30T06:06:39;3.92;;;2.40;;
48621;SDS011;34421;48.944;9.460;2022-07-30T06:09:05;3.38;;;2.08;;
48621;SDS011;34421;48.944;9.460;2022-07-30T06:11:30;3.53;;;2.05;;
48621;SDS011;34421;48.944;9.460;2022-07-30T06:13:55;3.75;;;2.00;;
48621;SDS011;34421;48.944;9.460;2022-07-30T06:16:21;4.20;;;2.60;;
48621;SDS011;34421;48.944;9.460;2022-07-30T06:18:46;5.30;;;2.40;;
48621;SDS011;34421;48.944;9.460;2022-07-30T06:21:11;3.58;;;2.03;;
48621;SDS011;34421;48.944;9.460;2022-07-30T06:23:37;3.17;;;2.20;;
48621;SDS011;34421;48.944;9.460;2022-07-30T06:26:02;3.65;;;2.47;;
48621;SDS011;34421;48.944;9.460;2022-07-30T06:28:27;5.05;;;1.90;;
48621;SDS011;34421;48.944;9.460;2022-07-30T06:30:53;4.28;;;2.20;;
48621;SDS011;34421;48.944;9.460;2022-07-30T06:33:18;3.13;;;2.10;;
48621;SDS011;34421;48.944;9.460;2022-07-30T06:35:43;4.00;;;2.10;;
48621;SDS011;34421;48.944;9.460;2022-07-30T06:38:09;4.05;;;2.17;;
48621;SDS011;34421;48.944;9.460;2022-07-30T06:40:34;3.97;;;2.08;;
48621;SDS011;34421;48.944;9.460;2022-07-30T06:43:00;3.53;;;2.42;;
48621;SDS011;34421;48.944;9.460;2022-07-30T06:45:25;3.65;;;2.40;;
48621;SDS011;34421;48.944;9.460;2022-07-30T06:47:50;4.63;;;2.70;;
48621;SDS011;34421;48.944;9.460;2022-07-30T06:50:16;4.13;;;2.10;;
48621;SDS011;34421;48.944;9.460;2022-07-30T06:52:43;4.13;;;2.60;;
48621;SDS011;34421;48.944;9.460;2022-07-30T06:55:08;3.42;;;2.00;;
48621;SDS011;34421;48.944;9.460;2022-07-30T06:57:34;5.32;;;3.00;;
48621;SDS011;34421;48.944;9.460;2022-07-30T06:59:59;4.03;;;2.40;;
48621;SDS011;34421;48.944;9.460;2022-07-30T07:02:24;3.65;;;2.13;;
48621;SDS011;34421;48.944;9.460;2022-07-30T07:04:50;6.53;;;2.20;;
48621;SDS011;34421;48.944;9.460;2022-07-30T07:07:15;4.22;;;2.60;;
48621;SDS011;34421;48.944;9.460;2022-07-30T07:09:40;3.92;;;2.55;;
48621;SDS011;34421;48.944;9.460;2022-07-30T07:12:07;4.45;;;2.40;;
48621;SDS011;34421;48.944;9.460;2022-07-30T07:14:32;3.33;;;2.25;;
48621;SDS011;34421;48.944;9.460;2022-07-30T07:16:58;3.95;;;2.53;;
48621;SDS011;34421;48.944;9.460;2022-07-30T07:19:23;4.85;;;2.53;;
48621;SDS011;34421;48.944;9.460;2022-07-30T07:21:49;5.32;;;2.67;;
48621;SDS011;34421;48.944;9.460;2022-07-30T07:24:14;4.72;;;2.25;;
48621;SDS011;34421;48.944;9.460;2022-07-30T07:26:39;2.95;;;1.98;;
48621;SDS011;34421;48.944;9.460;2022-07-30T07:29:05;4.85;;;2.40;;
48621;SDS011;34421;48.944;9.460;2022-07-30T07:31:30;3.58;;;2.17;;
48621;SDS011;34421;48.944;9.460;2022-07-30T07:33:56;3.53;;;2.05;;
48621;SDS011;34421;48.944;9.460;2022-07-30T07:36:21;3.55;;;2.30;;
48621;SDS011;34421;48.944;9.460;2022-07-30T07:38:47;3.97;;;2.30;;
48621;SDS011;34421;48.944;9.460;2022-07-30T07:41:13;3.72;;;2.10;;
48621;SDS011;34421;48.944;9.460;2022-07-30T07:43:38;4.65;;;2.53;;
48621;SDS011;34421;48.944;9.460;2022-07-30T07:46:04;3.63;;;2.30;;
48621;SDS011;34421;48.944;9.460;2022-07-30T07:48:30;3.80;;;2.40;;
48621;SDS011;34421;48.944;9.460;2022-07-30T07:50:55;4.70;;;2.58;;
48621;SDS011;34421;48.944;9.460;2022-07-30T07:53:20;2.65;;;1.60;;
48621;SDS011;34421;48.944;9.460;2022-07-30T07:55:46;3.60;;;2.10;;
48621;SDS011;34421;48.944;9.460;2022-07-30T07:58:11;3.90;;;2.55;;
48621;SDS011;34421;48.944;9.460;2022-07-30T08:00:38;4.38;;;2.42;;
48621;SDS011;34421;48.944;9.460;2022-07-30T08:03:04;5.15;;;2.33;;
48621;SDS011;34421;48.944;9.460;2022-07-30T08:05:32;5.30;;;2.83;;
48621;SDS011;34421;48.944;9.460;2022-07-30T08:07:57;3.75;;;2.42;;
48621;SDS011;34421;48.944;9.460;2022-07-30T08:10:23;3.70;;;2.50;;
48621;SDS011;34421;48.944;9.460;2022-07-30T08:12:49;3.58;;;2.50;;
48621;SDS011;34421;48.944;9.460;2022-07-30T08:15:14;3.80;;;2.08;;
48621;SDS011;34421;48.944;9.460;2022-07-30T08:17:40;4.28;;;2.55;;
48621;SDS011;34421;48.944;9.460;2022-07-30T08:20:06;2.83;;;1.77;;
48621;SDS011;34421;48.944;9.460;2022-07-30T08:22:32;5.43;;;2.28;;
48621;SDS011;34421;48.944;9.460;2022-07-30T08:24:57;4.88;;;2.40;;
48621;SDS011;34421;48.944;9.460;2022-07-30T08:27:23;5.10;;;2.42;;
48621;SDS011;34421;48.944;9.460;2022-07-30T08:29:48;3.92;;;2.30;;
48621;SDS011;34421;48.944;9.460;2022-07-30T08:32:13;3.00;;;2.00;;
48621;SDS011;34421;48.944;9.460;2022-07-30T08:34:39;3.55;;;2.15;;
48621;SDS011;34421;48.944;9.460;2022-07-30T08:37:04;4.55;;;2.25;;
48621;SDS011;34421;48.944;9.460;2022-07-30T08:39:30;3.17;;;1.98;;
48621;SDS011;34421;48.944;9.460;2022-07-30T08:41:55;3.65;;;1.95;;
48621;SDS011;34421;48.944;9.460;2022-07-30T08:44:22;3.95;;;2.15;;
48621;SDS011;34421;48.944;9.460;2022-07-30T08:46:48;3.90;;;1.98;;
48621;SDS011;34421;48.944;9.460;2022-07-30T08:49:16;4.13;;;2.13;;
48621;SDS011;34421;48.944;9.460;2022-07-30T08:51:42;2.92;;;2.13;;
48621;SDS011;34421;48.944;9.460;2022-07-30T08:54:08;3.22;;;2.17;;
48621;SDS011;34421;48.944;9.460;2022-07-30T08:56:34;2.65;;;1.58;;
48621;SDS011;34421;48.944;9.460;2022-07-30T08:59:00;3.17;;;1.73;;
48621;SDS011;34421;48.944;9.460;2022-07-30T09:01:26;5.55;;;1.88;;
48621;SDS011;34421;48.944;9.460;2022-07-30T09:03:51;2.83;;;1.70;;
48621;SDS011;34421;48.944;9.460;2022-07-30T09:06:17;3.08;;;2.00;;
48621;SDS011;34421;48.944;9.460;2022-07-30T09:08:43;3.28;;;2.28;;
48621;SDS011;34421;48.944;9.460;2022-07-30T09:11:09;4.07;;;2.10;;
48621;SDS011;34421;48.944;9.460;2022-07-30T09:13:35;3.70;;;2.17;;
48621;SDS011;34421;48.944;9.460;2022-07-30T09:16:02;3.97;;;2.65;;
48621;SDS011;34421;48.944;9.460;2022-07-30T09:18:36;4.70;;;2.10;;
48621;SDS011;34421;48.944;9.460;2022-07-30T09:26:27;3.17;;;1.80;;
48621;SDS011;34421;48.944;9.460;2022-07-30T09:28:53;3.90;;;2.20;;
48621;SDS011;34421;48.944;9.460;2022-07-30T09:31:20;4.50;;;2.47;;
48621;SDS011;34421;48.944;9.460;2022-07-30T09:33:46;4.05;;;1.90;;
48621;SDS011;34421;48.944;9.460;2022-07-30T09:36:13;2.85;;;2.00;;
48621;SDS011;34421;48.944;9.460;2022-07-30T09:38:41;2.72;;;1.60;;
48621;SDS011;34421;48.944;9.460;2022-07-30T09:41:09;3.60;;;1.80;;
48621;SDS011;34421;48.944;9.460;2022-07-30T09:43:42;2.90;;;1.50;;
48621;SDS011;34421;48.944;9.460;2022-07-30T09:46:11;4.47;;;1.77;;
48621;SDS011;34421;48.944;9.460;2022-07-30T09:48:37;1.92;;;1.30;;
48621;SDS011;34421;48.944;9.460;2022-07-30T09:51:03;2.58;;;1.50;;
48621;SDS011;34421;48.944;9.460;2022-07-30T09:53:28;3.25;;;1.60;;
48621;SDS011;34421;48.944;9.460;2022-07-30T09:55:53;2.53;;;1.55;;
48621;SDS011;34421;48.944;9.460;2022-07-30T09:58:20;2.72;;;1.55;;
48621;SDS011;34421;48.944;9.460;2022-07-30T10:00:45;4.72;;;1.90;;
48621;SDS011;34421;48.944;9.460;2022-07-30T10:03:19;3.40;;;1.73;;
48621;SDS011;34421;48.944;9.460;2022-07-30T10:05:49;2.38;;;1.50;;
48621;SDS011;34421;48.944;9.460;2022-07-30T10:08:14;2.00;;;1.40;;
48621;SDS011;34421;48.944;9.460;2022-07-30T10:10:40;3.53;;;1.52;;
48621;SDS011;34421;48.944;9.460;2022-07-30T10:13:06;3.72;;;1.75;;
48621;SDS011;34421;48.944;9.460;2022-07-30T10:15:34;2.83;;;1.55;;
48621;SDS011;34421;48.944;9.460;2022-07-30T10:18:01;1.95;;;1.25;;
48621;SDS011;34421;48.944;9.460;2022-07-30T10:20:28;2.55;;;1.58;;
48621;SDS011;34421;48.944;9.460;2022-07-30T10:22:54;2.13;;;1.50;;
48621;SDS011;34421;48.944;9.460;2022-07-30T10:25:20;1.90;;;1.40;;
48621;SDS011;34421;48.944;9.460;2022-07-30T10:27:47;2.60;;;1.60;;
48621;SDS011;34421;48.944;9.460;2022-07-30T10:30:13;1.75;;;1.35;;
48621;SDS011;34421;48.944;9.460;2022-07-30T10:32:39;2.83;;;1.70;;
48621;SDS011;34421;48.944;9.460;2022-07-30T10:35:05;2.08;;;1.58;;
48621;SDS011;34421;48.944;9.460;2022-07-30T10:37:32;1.80;;;1.38;;
48621;SDS011;34421;48.944;9.460;2022-07-30T10:40:04;2.40;;;1.35;;
48621;SDS011;34421;48.944;9.460;2022-07-30T10:47:48;2.08;;;1.40;;
48621;SDS011;34421;48.944;9.460;2022-07-30T10:50:19;2.58;;;1.42;;
48621;SDS011;34421;48.944;9.460;2022-07-30T10:52:57;2.13;;;1.38;;
48621;SDS011;34421;48.944;9.460;2022-07-30T10:55:28;1.60;;;1.30;;
48621;SDS011;34421;48.944;9.460;2022-07-30T10:58:10;3.60;;;1.80;;
48621;SDS011;34421;48.944;9.460;2022-07-30T11:05:45;2.30;;;1.63;;
48621;SDS011;34421;48.944;9.460;2022-07-30T11:08:32;2.08;;;1.17;;
48621;SDS011;34421;48.944;9.460;2022-07-30T11:13:51;2.93;;;1.50;;
48621;SDS011;34421;48.944;9.460;2022-07-30T11:16:17;1.70;;;1.40;;
48621;SDS011;34421;48.944;9.460;2022-07-30T11:21:29;3.03;;;1.35;;
48621;SDS011;34421;48.944;9.460;2022-07-30T11:23:56;2.00;;;1.20;;
48621;SDS011;34421;48.944;9.460;2022-07-30T11:29:03;3.00;;;1.50;;
48621;SDS011;34421;48.944;9.460;2022-07-30T11:42:28;2.53;;;1.52;;
48621;SDS011;34421;48.944;9.460;2022-07-30T11:47:42;1.73;;;1.23;;
48621;SDS011;34421;48.944;9.460;2022-07-30T11:50:17;2.03;;;1.20;;
48621;SDS011;34421;48.944;9.460;2022-07-30T11:52:47;2.10;;;1.35;;
48621;SDS011;34421;48.944;9.460;2022-07-30T11:55:20;2.10;;;1.05;;
48621;SDS011;34421;48.944;9.460;2022-07-30T11:57:57;4.45;;;1.33;;
48621;SDS011;34421;48.944;9.460;2022-07-30T12:00:24;1.63;;;1.10;;
48621;SDS011;34421;48.944;9.460;2022-07-30T12:02:50;2.65;;;1.42;;
48621;SDS011;34421;48.944;9.460;2022-07-30T12:05:22;1.48;;;1.08;;
48621;SDS011;34421;48.944;9.460;2022-07-30T12:07:49;1.83;;;1.20;;
48621;SDS011;34421;48.944;9.460;2022-07-30T12:10:16;2.08;;;1.17;;
48621;SDS011;34421;48.944;9.460;2022-07-30T12:12:43;1.40;;;1.02;;
48621;SDS011;34421;48.944;9.460;2022-07-30T12:15:09;2.30;;;1.20;;
48621;SDS011;34421;48.944;9.460;2022-07-30T12:20:17;2.13;;;1.08;;
48621;SDS011;34421;48.944;9.460;2022-07-30T12:22:44;1.77;;;1.00;;
48621;SDS011;34421;48.944;9.460;2022-07-30T12:25:09;1.35;;;0.93;;
48621;SDS011;34421;48.944;9.460;2022-07-30T12:27:36;1.27;;;0.90;;
48621;SDS011;34421;48.944;9.460;2022-07-30T12:30:04;1.05;;;0.90;;
48621;SDS011;34421;48.944;9.460;2022-07-30T12:32:32;1.10;;;0.80;;
48621;SDS011;34421;48.944;9.460;2022-07-30T12:34:58;1.35;;;0.98;;
48621;SDS011;34421;48.944;9.460;2022-07-30T12:37:23;2.60;;;1.23;;
48621;SDS011;34421;48.944;9.460;2022-07-30T12:40:03;1.98;;;0.95;;
48621;SDS011;34421;48.944;9.460;2022-07-30T12:42:32;2.70;;;0.75;;
48621;SDS011;34421;48.944;9.460;2022-07-30T12:44:58;1.48;;;1.15;;
48621;SDS011;34421;48.944;9.460;2022-07-30T12:49:54;2.65;;;1.10;;
48621;SDS011;34421;48.944;9.460;2022-07-30T12:55:27;1.50;;;1.13;;
48621;SDS011;34421;48.944;9.460;2022-07-30T12:58:01;1.83;;;0.85;;
48621;SDS011;34421;48.944;9.460;2022-07-30T13:00:44;1.38;;;0.98;;
48621;SDS011;34421;48.944;9.460;2022-07-30T13:03:27;1.45;;;1.10;;
48621;SDS011;34421;48.944;9.460;2022-07-30T13:05:54;1.83;;;1.00;;
48621;SDS011;34421;48.944;9.460;2022-07-30T13:08:20;3.08;;;1.55;;
48621;SDS011;34421;48.944;9.460;2022-07-30T13:11:15;1.45;;;1.00;;
48621;SDS011;34421;48.944;9.460;2022-07-30T13:13:43;3.42;;;1.00;;
48621;SDS011;34421;48.944;9.460;2022-07-30T13:16:09;1.42;;;0.90;;
48621;SDS011;34421;48.944;9.460;2022-07-30T13:18:35;2.40;;;1.33;;
48621;SDS011;34421;48.944;9.460;2022-07-30T13:21:02;1.58;;;0.90;;
48621;SDS011;34421;48.944;9.460;2022-07-30T13:23:29;1.45;;;0.93;;
48621;SDS011;34421;48.944;9.460;2022-07-30T13:25:54;2.05;;;1.58;;
48621;SDS011;34421;48.944;9.460;2022-07-30T13:28:20;1.85;;;1.20;;
48621;SDS011;34421;48.944;9.460;2022-07-30T13:30:46;1.48;;;1.10;;
48621;SDS011;34421;48.944;9.460;2022-07-30T13:33:12;2.72;;;1.10;;
48621;SDS011;34421;48.944;9.460;2022-07-30T13:35:38;2.25;;;1.42;;
48621;SDS011;34421;48.944;9.460;2022-07-30T13:38:04;2.10;;;1.15;;
48621;SDS011;34421;48.944;9.460;2022-07-30T13:40:30;1.35;;;1.00;;
48621;SDS011;34421;48.944;9.460;2022-07-30T13:42:56;1.77;;;1.00;;
48621;SDS011;34421;48.944;9.460;2022-07-30T13:45:22;1.75;;;1.20;;
48621;SDS011;34421;48.944;9.460;2022-07-30T13:47:48;1.60;;;1.10;;
48621;SDS011;34421;48.944;9.460;2022-07-30T13:50:13;3.63;;;1.10;;
48621;SDS011;34421;48.944;9.460;2022-07-30T13:52:38;2.05;;;1.23;;
48621;SDS011;34421;48.944;9.460;2022-07-30T13:55:04;1.65;;;0.82;;
48621;SDS011;34421;48.944;9.460;2022-07-30T13:57:29;1.83;;;0.98;;
48621;SDS011;34421;48.944;9.460;2022-07-30T13:59:55;1.40;;;0.93;;
48621;SDS011;34421;48.944;9.460;2022-07-30T14:02:21;3.05;;;1.50;;
48621;SDS011;34421;48.944;9.460;2022-07-30T14:04:46;1.67;;;0.77;;
48621;SDS011;34421;48.944;9.460;2022-07-30T14:07:11;2.33;;;1.20;;
48621;SDS011;34421;48.944;9.460;2022-07-30T14:09:37;2.00;;;1.13;;
48621;SDS011;34421;48.944;9.460;2022-07-30T14:12:03;2.17;;;1.20;;
48621;SDS011;34421;48.944;9.460;2022-07-30T14:14:29;1.95;;;1.10;;
48621;SDS011;34421;48.944;9.460;2022-07-30T14:16:54;1.15;;;0.90;;
48621;SDS011;34421;48.944;9.460;2022-07-30T14:19:19;1.60;;;1.00;;
48621;SDS011;34421;48.944;9.460;2022-07-30T14:21:45;2.22;;;0.93;;
48621;SDS011;34421;48.944;9.460;2022-07-30T14:24:11;1.50;;;1.00;;
48621;SDS011;34421;48.944;9.460;2022-07-30T14:26:40;1.55;;;1.00;;
48621;SDS011;34421;48.944;9.460;2022-07-30T14:29:06;3.08;;;1.25;;
48621;SDS011;34421;48.944;9.460;2022-07-30T14:31:32;2.33;;;1.10;;
48621;SDS011;34421;48.944;9.460;2022-07-30T14:33:58;1.40;;;1.02;;
48621;SDS011;34421;48.944;9.460;2022-07-30T14:36:24;1.27;;;0.90;;
48621;SDS011;34421;48.944;9.460;2022-07-30T14:38:52;1.17;;;0.70;;
48621;SDS011;34421;48.944;9.460;2022-07-30T14:41:17;3.25;;;1.33;;
48621;SDS011;34421;48.944;9.460;2022-07-30T14:43:43;2.20;;;1.10;;
48621;SDS011;34421;48.944;9.460;2022-07-30T14:46:08;1.17;;;0.80;;
48621;SDS011;34421;48.944;9.460;2022-07-30T14:48:33;1.27;;;0.80;;
48621;SDS011;34421;48.944;9.460;2022-07-30T14:50:59;2.47;;;0.95;;
48621;SDS011;34421;48.944;9.460;2022-07-30T14:53:25;1.55;;;0.75;;
48621;SDS011;34421;48.944;9.460;2022-07-30T14:55:51;1.75;;;0.95;;
48621;SDS011;34421;48.944;9.460;2022-07-30T14:58:16;0.98;;;0.88;;
48621;SDS011;34421;48.944;9.460;2022-07-30T15:00:42;2.95;;;0.90;;
48621;SDS011;34421;48.944;9.460;2022-07-30T15:03:07;1.77;;;1.08;;
48621;SDS011;34421;48.944;9.460;2022-07-30T15:05:32;2.35;;;1.08;;
48621;SDS011;34421;48.944;9.460;2022-07-30T15:07:58;1.17;;;0.75;;
48621;SDS011;34421;48.944;9.460;2022-07-30T15:10:23;1.77;;;0.82;;
48621;SDS011;34421;48.944;9.460;2022-07-30T15:12:48;2.83;;;0.88;;
48621;SDS011;34421;48.944;9.460;2022-07-30T15:15:14;1.63;;;0.90;;
48621;SDS011;34421;48.944;9.460;2022-07-30T15:17:39;2.03;;;1.02;;
48621;SDS011;34421;48.944;9.460;2022-07-30T15:20:05;1.10;;;0.70;;
48621;SDS011;34421;48.944;9.460;2022-07-30T15:22:33;0.93;;;0.75;;
48621;SDS011;34421;48.944;9.460;2022-07-30T15:24:59;1.35;;;0.90;;
48621;SDS011;34421;48.944;9.460;2022-07-30T15:27:24;2.08;;;0.80;;
48621;SDS011;34421;48.944;9.460;2022-07-30T15:29:50;1.23;;;0.77;;
48621;SDS011;34421;48.944;9.460;2022-07-30T15:32:15;1.20;;;0.80;;
48621;SDS011;34421;48.944;9.460;2022-07-30T15:34:41;1.30;;;0.80;;
48621;SDS011;34421;48.944;9.460;2022-07-30T15:37:07;1.35;;;0.90;;